Terminal Aerodrome Forecast
Issued by NWS

Home | Current Version | Previous Version | Text Only | Print | Product List | Glossary On
Versions: 1 2 3 4 5 6 7 8 9 10 11 12 13 14 15 16 17 18 19 20 21 22 23 24
685
FTUS42 KMFL 221740 CCA
TAFMIA
TAF COR
KMIA 221740Z 2218/2318 13009KT P6SM VCTS SCT030CB BKN060 BKN250
     FM222100 11007KT P6SM FEW040 SCT250
     FM230100 VRB03KT P6SM FEW025
     FM231500 09010KT P6SM SCT035=

USA.gov is the U.S. government's official web portal to all federal, state and local government web resources and services.